home | artists | genres | years | calendar | countries | playbacks | last played

Records of trip-hop

overviewpopular tracks

Artist Record Year Power Played Added Last Played
Линда Песни Тибетских Лам 1995 4.0 16 1997-06-05 2020-06-07
Линда Ворона 1996 8.0 48 1997-06-05 2015-07-13
Макс Фадеев Ножницы 1997 3.0 18 1997-09-05 2015-03-18
Recoil Unsound Methods 1997 0.0 3 1997-10-05 2007-01-28
Faithless Reverence 1996 3.1 20 1998-04-15 2015-04-19
Massive Attack Mezzanine 1998 1.0 9 1998-10-31 2012-01-06
Massive Attack Daydreaming 1990 0.0 0 1998-10-31 Never
Massive Attack Unfinished Symphathy 1991 0.0 0 1998-10-31 Never
Massive Attack Safe From Harm 1991 0.0 0 1998-10-31 Never
Massive Attack Sly 1994 0.0 0 1998-10-31 Never
Massive Attack Karmacoma 1995 0.0 0 1998-10-31 Never
Massive Attack Risingson 1997 0.0 0 1998-10-31 Never
Massive Attack Teardrop 1998 0.0 0 1998-10-31 Never
Massive Attack Angel 1998 0.0 1 1998-10-31 2006-11-21
Massive Attack Inertia Creeps 1998 0.0 0 1998-10-31 Never
Red Snapper Making Bones 1998 0.0 0 1999-06-05 Never
Red Snapper Prince Blimey 1996 3.1 37 1999-06-05 2017-03-27
Kid Loco Jesus Life For Children Under 12 Inches 1999 0.1 1 1999-08-05 2005-10-08
Jimi Tenor Organism 1999 1.0 4 1999-10-05 2008-02-26
Gus Gus This Is Normal 1999 0.0 0 1999-12-05 Never
Линда Плацента 1999 0.0 15 1999-12-05 2008-01-08
Gus Gus Polydistortion 1996 0.0 0 1999-12-05 Never
Aphex Twin Donkey Rhubarb 1995 3.0 26 2000-04-05 2017-08-08
Recoil Liquid 2000 2.0 22 2000-06-05 2008-03-27
Arovane Tides 2000 1.0 9 2000-08-31 2007-01-04
Recoil Strange Hours 2000 0.0 0 2000-12-05 Never
Recoil Jezebel 2000 1.0 2 2000-12-05 2010-05-15
Robert Miles Organik 2001 0.1 4 2001-03-31 2008-04-01
Portishead Dummy 1994 4.1 21 2001-06-05 2015-07-26
Björk Vespertine 2001 0.0 0 2001-08-31 Never
Faithless Outrospective 2001 0.0 1 2001-11-05 2007-01-04
Air 10.000 Hz Legend 2001 9.0 63 2002-02-05 2015-12-14
Télépopmusik Genetic World 2002 7.1 30 2002-08-05 2021-03-02
Etienne de Crecy Tempovision 2001 0.0 1 2003-01-08 2007-11-05
Groove Armada Goodbye Country (Hello Nightclub) 2001 1.0 7 2003-01-08 2010-01-18
Groove Armada Socks. Cigarettes And Shipwrecks 2001 0.0 0 2003-01-08 Never
Goldfrapp Black Cherry 2003 3.0 4 2003-04-25 2017-03-27
The Dining Rooms Tre 2003 0.0 0 2003-11-02 Never
Arkestra One Arkestra One 2002 1.0 3 2003-11-05 2008-08-09
Death In Vegas The Contino Sessions 1999 1.0 12 2004-02-17 2008-10-19
Portishead Roseland NY Symphonic Orchestra Live 1998 0.0 0 2004-04-19 Never
Múm Summer Make Good 2004 1.0 3 2004-04-21 2008-03-27
Christian Kleine Real Ghosts 2004 1.0 5 2004-05-06 2019-01-08
Mono Formica Blues 1998 5.0 14 2004-05-06 2015-05-09
various Chilled Ibiza 2000 1.0 10 2004-05-27 2015-08-07
Purple Penguin De-tuned 2000 3.0 6 2004-05-28 2012-10-23
Bliss Quiet Letters 2004 2.0 11 2004-06-12 2008-08-07
Линда Атака 2004 0.0 8 2004-12-02 2007-05-27
Efterklang Tripper 2004 0.0 0 2004-12-23 Never
Helios Unomia 2004 0.0 6 2005-01-16 2005-07-10
Halou Wiser 2001 2.0 14 2005-04-19 2011-12-19
Recoil Drifting 1997 0.0 1 2005-05-21 2007-01-28
Kahimi Karie Trapéziste 2003 0.1 7 2005-07-15 2008-02-26
various Sampler 5.00 AI Records 2000-2005 2005 1.0 4 2005-07-15 2008-12-11
Jay-Jay Johanson Rush 2005 19.0 435 2005-08-28 2017-03-04
Caural Stars On My Ceiling 2002 2.1 20 2005-10-20 2015-04-30
Koop Sons Of Koop 1997 0.0 0 2005-10-25 Never
Substrata Unreleased Movie 2005 1.0 8 2005-12-04 2009-04-15
Tortoise Rhythms, Resolutions And Clusters 1995 1.0 12 2006-01-04 2008-04-10
Lamb What Sound 2001 0.0 3 2006-01-13 2012-08-18
Millimetrik Deeper Transmissions 2004 0.0 0 2006-01-13 Never
Vesna Snow Sences 2004 0.0 15 2006-02-07 2008-07-10
Funckarma Elaztiq Bourbon 5 2005 0.0 2 2006-02-08 2006-02-04
Junkie XL 7AM 2003 1.0 1 2006-04-15 2008-04-09
Alias & Ehren Lillian 2005 4.2 64 2006-05-05 2015-05-01
Dudley Seasonal 2003 2.0 18 2006-05-05 2008-04-05
Future 3 We Are The Future 3 1995 0.0 1 2006-05-05 2006-04-25
Sandy Dillon & Hector Zazou Las Vegas Is Curved 2005 0.0 2 2006-05-29 2006-05-29
Tstewart Living Exponentially 2006 0.0 3 2006-05-29 2007-11-24
Balligomingo Beneath The Surface 2002 1.0 10 2006-06-01 2008-03-27
Jay-Jay Johanson Live In Bikini 2001 0.0 0 2006-10-25 Never
Peace Orchestra Peace Orchestra 1999 0.0 7 2006-12-09 2006-12-26
I Monster Neveroddoreven 2003 3.0 120 2007-04-15 2015-08-07
Recoil Prey-Allelujah 2008 0.0 0 2008-04-08 Never
Aus Crowding 2005 0.0 9 2008-06-20 2008-06-13
Dream Lab Cosmotherapy 2007 1.0 5 2008-07-30 2012-11-16
Yage The Woodlands Of Old 2008 0.0 0 2008-08-19 Never
Anja Garbarek Balloon Mood 1996 0.0 46 2008-10-09 2010-11-05
Kid Loco Party Animals And Disco Biscuits 2008 4.0 22 2008-10-24 2013-04-26
Zofka Bad Girls 2000 0.0 0 2008-12-09 Never
Musetta Mice To Meet You! 2007 1.0 6 2009-02-01 2009-04-05
Little People Mickey Mouse Operation 2005 1.0 16 2009-04-07 2011-04-13
elodieO Stubborn 2008 0.0 0 2009-05-09 Never
Max Chorny Музыка Без Слов 2002 0.0 1 2009-05-09 2009-04-24
Wax Tailor The Tales Of Forgotten Melodies 2005 0.0 10 2009-07-19 2009-07-20
Luke Vibert We Hear You 2009 0.1 1 2009-09-01 2009-08-26
Mylène Farmer L'histoire D'une Fée, C'est 2001 1.0 3 2009-09-01 2012-03-22
Tryad Listen 2006 1.0 6 2009-09-01 2009-10-11
Ugress Cinematronics 2004 2.0 8 2009-09-01 2015-06-04
Silent Poets For Nothing 1997 0.0 2 2009-11-01 2009-10-27
Silent Poets Sun 2006 0.0 0 2009-11-01 Never
Arms And Sleepers Black Paris 86 2007 3.1 6 2010-02-27 2015-06-27
Dubphonic Relight 2009 7.0 14 2010-02-27 2020-06-07
Milosh You Make Me Feel 2004 0.0 2 2010-02-27 2010-02-17
Thievery Corporation The Mirror Conspiracy 2000 0.0 3 2010-04-12 2010-11-04
Venus Hum Mechanics & Mathematics 2009 0.0 0 2010-04-12 Never
Bonobo Black Sands 2010 0.0 0 2010-05-14 Never
Cybo Void 2009 1.0 1 2010-05-14 2012-10-25
Скрябін Еутерпа 1999 0.0 0 2010-05-14 Never
Melodrom Melodrom 2004 2.1 3 2010-07-30 2012-10-23
Melodrom The Guide 2006 2.0 9 2010-07-30 2011-09-03
Berry Weight Music For Imaginary Movies 2010 1.0 2 2010-08-07 2010-10-03
Röyksopp Senior 2010 5.0 19 2010-08-24 2015-01-29
Digital Alkemist Fuga Magica 2010 0.0 1 2010-11-09 2010-11-09
Yimino Breaker 2010 0.0 0 2010-11-18 Never
Helios Unleft 2010 1.0 3 2011-02-04 2011-06-02
The Herbaliser Take London 2005 1.0 1 2011-05-03 2011-06-01
Kinobe Choose Your Own Adventure 2009 3.1 8 2011-06-29 2015-03-30
Kid Loco Confession Of A Belladonna Eater 2011 3.1 11 2011-09-12 2012-02-15
Saintsaviour Suukei 2011 3.0 4 2012-02-13 2017-03-29
Gábor Deutsch Contrast 2000 0.0 0 2012-02-28 Never
Bang-Bang Je T'aime, Je T'aime 1999 0.0 0 2012-03-28 Never
Lana Del Rey Born To Die 2012 13.2 100 2012-08-27 2019-02-26
Daizy Amarat 2012 1.0 8 2012-12-07 2012-11-16
Little People We Are But Hunks Of Wood 2012 2.0 5 2012-12-15 2013-06-16
Recoil Strange Hour - Radio Special Edit 2013 0.0 0 2013-02-20 Never
Kelpe Answered 2013 0.0 0 2013-04-30 Never
The Knife Shaking The Habitual 2013 0.0 0 2013-05-08 Never
Bomb The Bass In The Sun 2013 2.0 12 2013-08-08 2013-11-06
Data Romance Other 2013 2.1 13 2013-10-08 2013-12-03
Kubbi Circuithead 2012 7.0 17 2013-11-20 2015-04-12
Nôze Come With Us 2015 2.1 16 2015-07-07 2015-12-31
Jean Michel Jarre & 3D Watching You 2015 0.0 0 2015-08-09 Never
Aaron We Cut the Night 2015 2.0 3 2015-09-19 2015-11-07
Bristol Bristol 2015 1.0 3 2015-10-03 2015-10-02
Papercut Pockets of Silence 2015 0.1 1 2015-11-09 2015-11-08
CharlestheFirst Roots 2015 1.0 5 2018-02-20 2018-02-23
Døgg Nónsgjógv Tað Sum Var 2017 3.0 13 2018-02-28 2019-02-26
Døgg Nónsgjógv Vís Mær Kærleika 2016 1.0 3 2018-02-28 2018-04-06
Mounika How Are You 2017 4.0 19 2018-06-06 2018-07-16
Skyence Untrodden Soil 2017 2.0 6 2018-06-12 2018-07-16
Kid Loco The Rare Birds 2019 0.0 3 2019-11-28 2019-11-20
Emancipator Mountain of Memory 2020 0.0 0 2020-10-06 Never
Kick Out The JAMS! Aulismedia Music Library 2018.02.18 "Space Oddity" © Sergey Mishenev 2003-2021